sensor_id;sensor_type;location;lat;lon;timestamp;pressure;altitude;pressure_sealevel;temperature;humidity
10988;BME280;5547;42.672;23.230;2023-12-04T00:01:17;93664.03;;;-3.09;100.00
10988;BME280;5547;42.672;23.230;2023-12-04T00:04:17;93662.38;;;-3.13;100.00
10988;BME280;5547;42.672;23.230;2023-12-04T00:07:17;93635.31;;;-3.39;100.00
10988;BME280;5547;42.672;23.230;2023-12-04T00:10:18;93647.97;;;-3.11;100.00
10988;BME280;5547;42.672;23.230;2023-12-04T00:13:18;93661.59;;;-3.14;100.00
10988;BME280;5547;42.672;23.230;2023-12-04T00:16:19;93641.84;;;-3.24;100.00
10988;BME280;5547;42.672;23.230;2023-12-04T00:19:19;93671.50;;;-2.90;100.00
10988;BME280;5547;42.672;23.230;2023-12-04T00:22:19;93689.41;;;-2.88;100.00
10988;BME280;5547;42.672;23.230;2023-12-04T00:25:20;93685.56;;;-2.82;100.00
10988;BME280;5547;42.672;23.230;2023-12-04T00:28:20;93681.59;;;-2.88;100.00
10988;BME280;5547;42.672;23.230;2023-12-04T00:31:20;93695.22;;;-2.83;100.00
10988;BME280;5547;42.672;23.230;2023-12-04T00:34:21;93681.63;;;-2.97;100.00
10988;BME280;5547;42.672;23.230;2023-12-04T00:37:21;93701.69;;;-3.06;100.00
10988;BME280;5547;42.672;23.230;2023-12-04T00:40:22;93681.63;;;-3.14;100.00
10988;BME280;5547;42.672;23.230;2023-12-04T00:43:23;93670.97;;;-3.30;100.00
10988;BME280;5547;42.672;23.230;2023-12-04T00:46:23;93687.47;;;-3.26;100.00
10988;BME280;5547;42.672;23.230;2023-12-04T00:49:24;93654.44;;;-3.52;100.00
10988;BME280;5547;42.672;23.230;2023-12-04T00:52:24;93712.25;;;-3.20;100.00
10988;BME280;5547;42.672;23.230;2023-12-04T00:55:24;93614.84;;;-3.92;100.00
10988;BME280;5547;42.672;23.230;2023-12-04T00:58:25;93642.97;;;-3.51;100.00
10988;BME280;5547;42.672;23.230;2023-12-04T01:01:25;93684.09;;;-3.35;100.00
10988;BME280;5547;42.672;23.230;2023-12-04T01:04:25;93670.94;;;-3.22;100.00
10988;BME280;5547;42.672;23.230;2023-12-04T01:07:27;93689.59;;;-3.20;100.00
10988;BME280;5547;42.672;23.230;2023-12-04T01:10:27;93709.19;;;-3.13;100.00
10988;BME280;5547;42.672;23.230;2023-12-04T01:13:27;93702.47;;;-3.23;100.00
10988;BME280;5547;42.672;23.230;2023-12-04T01:16:28;93697.28;;;-3.23;100.00
10988;BME280;5547;42.672;23.230;2023-12-04T01:19:28;93631.81;;;-3.77;100.00
10988;BME280;5547;42.672;23.230;2023-12-04T01:22:29;93677.09;;;-3.44;100.00
10988;BME280;5547;42.672;23.230;2023-12-04T01:25:29;93716.53;;;-3.15;100.00
10988;BME280;5547;42.672;23.230;2023-12-04T01:28:30;93713.34;;;-3.21;100.00
10988;BME280;5547;42.672;23.230;2023-12-04T01:31:31;93675.41;;;-3.48;100.00
10988;BME280;5547;42.672;23.230;2023-12-04T01:34:31;93722.66;;;-3.20;100.00
10988;BME280;5547;42.672;23.230;2023-12-04T01:37:31;93652.63;;;-3.60;100.00
10988;BME280;5547;42.672;23.230;2023-12-04T01:40:32;93722.50;;;-3.24;100.00
10988;BME280;5547;42.672;23.230;2023-12-04T01:43:32;93666.53;;;-3.65;100.00
10988;BME280;5547;42.672;23.230;2023-12-04T01:46:32;93728.31;;;-3.27;100.00
10988;BME280;5547;42.672;23.230;2023-12-04T01:49:33;93658.41;;;-3.63;100.00
10988;BME280;5547;42.672;23.230;2023-12-04T01:52:35;93726.94;;;-3.24;100.00
10988;BME280;5547;42.672;23.230;2023-12-04T01:55:36;93696.81;;;-3.43;100.00
10988;BME280;5547;42.672;23.230;2023-12-04T01:58:38;93737.66;;;-3.34;100.00
10988;BME280;5547;42.672;23.230;2023-12-04T02:01:38;93666.50;;;-3.99;100.00
10988;BME280;5547;42.672;23.230;2023-12-04T02:04:40;93581.91;;;-4.49;100.00
10988;BME280;5547;42.672;23.230;2023-12-04T02:07:41;93734.13;;;-3.47;100.00
10988;BME280;5547;42.672;23.230;2023-12-04T02:10:42;93737.34;;;-3.59;100.00
10988;BME280;5547;42.672;23.230;2023-12-04T02:13:43;93746.03;;;-3.64;100.00
10988;BME280;5547;42.672;23.230;2023-12-04T02:16:44;93707.94;;;-3.77;100.00
10988;BME280;5547;42.672;23.230;2023-12-04T02:19:45;93745.59;;;-3.57;100.00
10988;BME280;5547;42.672;23.230;2023-12-04T02:22:45;93758.75;;;-3.53;100.00
10988;BME280;5547;42.672;23.230;2023-12-04T02:25:46;93748.66;;;-3.55;100.00
10988;BME280;5547;42.672;23.230;2023-12-04T02:28:54;93761.38;;;-3.53;100.00
10988;BME280;5547;42.672;23.230;2023-12-04T02:31:56;93682.09;;;-3.99;100.00
10988;BME280;5547;42.672;23.230;2023-12-04T02:34:59;93678.38;;;-4.07;100.00
10988;BME280;5547;42.672;23.230;2023-12-04T02:38:03;93754.00;;;-3.51;100.00
10988;BME280;5547;42.672;23.230;2023-12-04T02:41:04;93769.28;;;-3.67;100.00
10988;BME280;5547;42.672;23.230;2023-12-04T02:44:04;93769.25;;;-3.76;100.00
10988;BME280;5547;42.672;23.230;2023-12-04T02:47:05;93761.16;;;-3.74;100.00
10988;BME280;5547;42.672;23.230;2023-12-04T02:50:06;93767.44;;;-3.75;100.00
10988;BME280;5547;42.672;23.230;2023-12-04T02:53:06;93762.22;;;-3.75;100.00
10988;BME280;5547;42.672;23.230;2023-12-04T02:56:07;93770.47;;;-3.82;100.00
10988;BME280;5547;42.672;23.230;2023-12-04T02:59:07;93763.13;;;-3.80;100.00
10988;BME280;5547;42.672;23.230;2023-12-04T03:02:08;93768.00;;;-3.87;100.00
10988;BME280;5547;42.672;23.230;2023-12-04T03:05:08;93732.94;;;-4.07;100.00
10988;BME280;5547;42.672;23.230;2023-12-04T03:08:09;93743.19;;;-4.02;100.00
10988;BME280;5547;42.672;23.230;2023-12-04T03:11:09;93724.78;;;-4.23;100.00
10988;BME280;5547;42.672;23.230;2023-12-04T03:14:09;93768.75;;;-3.95;100.00
10988;BME280;5547;42.672;23.230;2023-12-04T03:17:10;93764.75;;;-3.93;100.00
10988;BME280;5547;42.672;23.230;2023-12-04T03:20:10;93704.41;;;-4.47;100.00
10988;BME280;5547;42.672;23.230;2023-12-04T03:23:11;93720.59;;;-4.41;100.00
10988;BME280;5547;42.672;23.230;2023-12-04T03:26:12;93759.53;;;-4.10;100.00
10988;BME280;5547;42.672;23.230;2023-12-04T03:29:12;93769.06;;;-3.97;100.00
10988;BME280;5547;42.672;23.230;2023-12-04T03:32:12;93689.84;;;-4.57;100.00
10988;BME280;5547;42.672;23.230;2023-12-04T03:35:13;93777.44;;;-4.00;100.00
10988;BME280;5547;42.672;23.230;2023-12-04T03:38:13;93774.25;;;-3.97;100.00
10988;BME280;5547;42.672;23.230;2023-12-04T03:41:14;93751.97;;;-4.29;100.00
10988;BME280;5547;42.672;23.230;2023-12-04T03:44:15;93763.88;;;-4.28;100.00
10988;BME280;5547;42.672;23.230;2023-12-04T03:47:15;93767.56;;;-4.29;100.00
10988;BME280;5547;42.672;23.230;2023-12-04T03:50:16;93777.75;;;-4.33;100.00
10988;BME280;5547;42.672;23.230;2023-12-04T03:53:16;93746.72;;;-4.69;100.00
10988;BME280;5547;42.672;23.230;2023-12-04T03:56:17;93771.50;;;-4.63;100.00
10988;BME280;5547;42.672;23.230;2023-12-04T03:59:17;93750.19;;;-4.82;100.00
10988;BME280;5547;42.672;23.230;2023-12-04T04:02:17;93721.81;;;-5.01;100.00
10988;BME280;5547;42.672;23.230;2023-12-04T04:05:18;93735.84;;;-5.02;100.00
10988;BME280;5547;42.672;23.230;2023-12-04T04:08:18;93778.53;;;-4.63;100.00
10988;BME280;5547;42.672;23.230;2023-12-04T04:11:18;93736.03;;;-4.99;100.00
10988;BME280;5547;42.672;23.230;2023-12-04T04:14:19;93779.69;;;-4.70;100.00
10988;BME280;5547;42.672;23.230;2023-12-04T04:17:19;93761.31;;;-4.82;100.00
10988;BME280;5547;42.672;23.230;2023-12-04T04:20:20;93793.00;;;-4.71;100.00
10988;BME280;5547;42.672;23.230;2023-12-04T04:23:20;93785.63;;;-4.78;100.00
10988;BME280;5547;42.672;23.230;2023-12-04T04:26:21;93620.69;;;-5.92;100.00
10988;BME280;5547;42.672;23.230;2023-12-04T04:29:21;93799.16;;;-4.81;100.00
10988;BME280;5547;42.672;23.230;2023-12-04T04:32:21;93795.19;;;-4.87;100.00
10988;BME280;5547;42.672;23.230;2023-12-04T04:35:22;93801.72;;;-4.90;100.00
10988;BME280;5547;42.672;23.230;2023-12-04T04:38:22;93776.41;;;-5.07;100.00
10988;BME280;5547;42.672;23.230;2023-12-04T04:41:23;93800.09;;;-4.99;100.00
10988;BME280;5547;42.672;23.230;2023-12-04T04:44:23;93801.78;;;-5.03;100.00
10988;BME280;5547;42.672;23.230;2023-12-04T04:47:23;93742.78;;;-5.34;100.00
10988;BME280;5547;42.672;23.230;2023-12-04T04:50:24;93739.84;;;-5.41;100.00
10988;BME280;5547;42.672;23.230;2023-12-04T04:53:24;93792.72;;;-5.06;100.00
10988;BME280;5547;42.672;23.230;2023-12-04T04:56:25;93800.69;;;-5.02;100.00
10988;BME280;5547;42.672;23.230;2023-12-04T04:59:25;93810.97;;;-4.97;100.00
10988;BME280;5547;42.672;23.230;2023-12-04T05:02:30;93768.50;;;-5.24;100.00
10988;BME280;5547;42.672;23.230;2023-12-04T05:05:31;93798.22;;;-5.08;100.00
10988;BME280;5547;42.672;23.230;2023-12-04T05:08:31;93831.16;;;-4.94;100.00
10988;BME280;5547;42.672;23.230;2023-12-04T05:11:32;93819.06;;;-4.99;100.00
10988;BME280;5547;42.672;23.230;2023-12-04T05:14:32;93814.78;;;-5.17;100.00
10988;BME280;5547;42.672;23.230;2023-12-04T05:17:33;93756.56;;;-5.47;100.00
10988;BME280;5547;42.672;23.230;2023-12-04T05:20:33;93813.91;;;-5.13;100.00
10988;BME280;5547;42.672;23.230;2023-12-04T05:23:33;93838.34;;;-4.91;100.00
10988;BME280;5547;42.672;23.230;2023-12-04T05:26:34;93830.94;;;-4.98;100.00
10988;BME280;5547;42.672;23.230;2023-12-04T05:29:34;93839.00;;;-4.99;100.00
10988;BME280;5547;42.672;23.230;2023-12-04T05:32:35;93833.94;;;-5.04;100.00
10988;BME280;5547;42.672;23.230;2023-12-04T05:35:35;93801.38;;;-5.33;100.00
10988;BME280;5547;42.672;23.230;2023-12-04T05:38:37;93808.31;;;-5.42;100.00
10988;BME280;5547;42.672;23.230;2023-12-04T05:41:37;93843.13;;;-5.21;100.00
10988;BME280;5547;42.672;23.230;2023-12-04T05:44:38;93824.44;;;-5.45;100.00
10988;BME280;5547;42.672;23.230;2023-12-04T05:47:38;93832.78;;;-5.35;100.00
10988;BME280;5547;42.672;23.230;2023-12-04T05:50:38;93837.31;;;-5.40;100.00
10988;BME280;5547;42.672;23.230;2023-12-04T05:53:39;93774.84;;;-5.80;100.00
10988;BME280;5547;42.672;23.230;2023-12-04T05:56:40;93835.88;;;-5.46;100.00
10988;BME280;5547;42.672;23.230;2023-12-04T05:59:40;93774.47;;;-5.87;100.00
10988;BME280;5547;42.672;23.230;2023-12-04T06:02:44;93844.78;;;-5.39;100.00
10988;BME280;5547;42.672;23.230;2023-12-04T06:05:45;93812.94;;;-5.67;100.00
10988;BME280;5547;42.672;23.230;2023-12-04T06:08:45;93840.84;;;-5.50;100.00
10988;BME280;5547;42.672;23.230;2023-12-04T06:11:46;93830.31;;;-5.54;100.00
10988;BME280;5547;42.672;23.230;2023-12-04T06:14:46;93852.16;;;-5.32;100.00
10988;BME280;5547;42.672;23.230;2023-12-04T06:17:47;93852.16;;;-5.32;100.00
10988;BME280;5547;42.672;23.230;2023-12-04T06:20:47;93864.09;;;-5.31;100.00
10988;BME280;5547;42.672;23.230;2023-12-04T06:23:48;93779.63;;;-5.60;100.00
10988;BME280;5547;42.672;23.230;2023-12-04T06:26:50;93858.38;;;-4.83;100.00
10988;BME280;5547;42.672;23.230;2023-12-04T06:29:51;93800.47;;;-4.92;100.00
10988;BME280;5547;42.672;23.230;2023-12-04T06:32:52;93878.47;;;-3.98;100.00
10988;BME280;5547;42.672;23.230;2023-12-04T06:35:52;93867.06;;;-3.89;100.00
10988;BME280;5547;42.672;23.230;2023-12-04T06:38:53;93863.41;;;-3.79;100.00
10988;BME280;5547;42.672;23.230;2023-12-04T06:41:54;93898.19;;;-3.66;100.00
10988;BME280;5547;42.672;23.230;2023-12-04T06:44:54;93906.19;;;-3.54;100.00
10988;BME280;5547;42.672;23.230;2023-12-04T06:47:56;93864.97;;;-3.78;100.00
10988;BME280;5547;42.672;23.230;2023-12-04T06:50:56;93901.13;;;-3.59;100.00
10988;BME280;5547;42.672;23.230;2023-12-04T06:53:57;93820.78;;;-4.18;100.00
10988;BME280;5547;42.672;23.230;2023-12-04T06:56:57;93842.06;;;-4.07;100.00
10988;BME280;5547;42.672;23.230;2023-12-04T06:59:58;93902.72;;;-3.81;100.00
10988;BME280;5547;42.672;23.230;2023-12-04T07:02:58;93903.13;;;-3.56;100.00
10988;BME280;5547;42.672;23.230;2023-12-04T07:05:59;93833.69;;;-3.95;100.00
10988;BME280;5547;42.672;23.230;2023-12-04T07:09:00;93913.53;;;-3.16;100.00
10988;BME280;5547;42.672;23.230;2023-12-04T07:12:01;93908.25;;;-3.33;100.00
10988;BME280;5547;42.672;23.230;2023-12-04T07:15:03;93861.72;;;-3.44;100.00
10988;BME280;5547;42.672;23.230;2023-12-04T07:18:03;93910.03;;;-2.85;100.00
10988;BME280;5547;42.672;23.230;2023-12-04T07:21:04;93913.53;;;-2.99;100.00
10988;BME280;5547;42.672;23.230;2023-12-04T07:24:05;93899.84;;;-3.39;100.00
10988;BME280;5547;42.672;23.230;2023-12-04T07:27:05;93917.06;;;-3.52;100.00
10988;BME280;5547;42.672;23.230;2023-12-04T07:30:06;93914.81;;;-3.36;100.00
10988;BME280;5547;42.672;23.230;2023-12-04T07:33:07;93928.34;;;-3.25;100.00
10988;BME280;5547;42.672;23.230;2023-12-04T07:36:07;93855.13;;;-3.50;100.00
10988;BME280;5547;42.672;23.230;2023-12-04T07:39:08;93915.69;;;-3.01;100.00
10988;BME280;5547;42.672;23.230;2023-12-04T07:42:09;93774.44;;;-4.25;100.00
10988;BME280;5547;42.672;23.230;2023-12-04T07:45:12;93839.13;;;-3.74;100.00
10988;BME280;5547;42.672;23.230;2023-12-04T07:48:13;93917.22;;;-3.00;100.00
10988;BME280;5547;42.672;23.230;2023-12-04T07:51:16;93853.94;;;-3.44;100.00
10988;BME280;5547;42.672;23.230;2023-12-04T07:54:17;93919.69;;;-2.94;100.00
10988;BME280;5547;42.672;23.230;2023-12-04T07:57:20;93837.00;;;-3.72;100.00
10988;BME280;5547;42.672;23.230;2023-12-04T08:00:20;93845.69;;;-3.77;100.00
10988;BME280;5547;42.672;23.230;2023-12-04T08:03:22;93841.72;;;-3.83;100.00
10988;BME280;5547;42.672;23.230;2023-12-04T08:06:23;93898.16;;;-3.26;100.00
10988;BME280;5547;42.672;23.230;2023-12-04T08:09:24;93813.41;;;-3.85;100.00
10988;BME280;5547;42.672;23.230;2023-12-04T08:12:24;93936.97;;;-2.99;100.00
10988;BME280;5547;42.672;23.230;2023-12-04T08:15:25;93909.69;;;-3.10;100.00
10988;BME280;5547;42.672;23.230;2023-12-04T08:18:25;93942.19;;;-2.90;100.00
10988;BME280;5547;42.672;23.230;2023-12-04T08:21:25;93903.25;;;-3.21;100.00
10988;BME280;5547;42.672;23.230;2023-12-04T08:24:26;93932.25;;;-2.88;100.00
10988;BME280;5547;42.672;23.230;2023-12-04T08:27:26;93952.63;;;-2.81;100.00
10988;BME280;5547;42.672;23.230;2023-12-04T08:30:27;93949.41;;;-2.78;100.00
10988;BME280;5547;42.672;23.230;2023-12-04T08:33:27;93950.50;;;-2.79;100.00
10988;BME280;5547;42.672;23.230;2023-12-04T08:36:27;93954.63;;;-2.69;100.00
10988;BME280;5547;42.672;23.230;2023-12-04T08:39:28;93946.06;;;-2.61;100.00
10988;BME280;5547;42.672;23.230;2023-12-04T08:42:29;93951.13;;;-2.65;100.00
10988;BME280;5547;42.672;23.230;2023-12-04T08:45:29;93952.53;;;-2.59;100.00
10988;BME280;5547;42.672;23.230;2023-12-04T08:48:30;93938.25;;;-2.53;100.00
10988;BME280;5547;42.672;23.230;2023-12-04T08:51:34;93920.34;;;-2.54;100.00
10988;BME280;5547;42.672;23.230;2023-12-04T08:54:38;93942.56;;;-2.39;100.00
10988;BME280;5547;42.672;23.230;2023-12-04T08:57:38;93939.66;;;-2.46;100.00
10988;BME280;5547;42.672;23.230;2023-12-04T09:00:39;93917.56;;;-2.58;100.00
10988;BME280;5547;42.672;23.230;2023-12-04T09:03:42;93917.88;;;-2.16;100.00
10988;BME280;5547;42.672;23.230;2023-12-04T09:06:43;93908.69;;;-2.39;100.00
10988;BME280;5547;42.672;23.230;2023-12-04T09:09:43;93922.91;;;-2.11;100.00
10988;BME280;5547;42.672;23.230;2023-12-04T09:12:44;93909.25;;;-1.99;100.00
10988;BME280;5547;42.672;23.230;2023-12-04T09:15:45;93852.13;;;-2.30;100.00
10988;BME280;5547;42.672;23.230;2023-12-04T09:18:46;93877.72;;;-2.32;100.00
10988;BME280;5547;42.672;23.230;2023-12-04T09:21:46;93912.75;;;-1.86;97.23
10988;BME280;5547;42.672;23.230;2023-12-04T09:24:47;93906.59;;;-1.73;100.00
10988;BME280;5547;42.672;23.230;2023-12-04T09:27:47;93830.44;;;-1.96;96.37
10988;BME280;5547;42.672;23.230;2023-12-04T09:30:48;93911.53;;;-1.80;93.69
10988;BME280;5547;42.672;23.230;2023-12-04T09:33:48;93904.94;;;-1.86;93.94
10988;BME280;5547;42.672;23.230;2023-12-04T09:36:49;93862.00;;;-1.88;93.45
10988;BME280;5547;42.672;23.230;2023-12-04T09:39:49;93795.34;;;-2.80;90.45
10988;BME280;5547;42.672;23.230;2023-12-04T09:42:51;93905.06;;;-1.74;93.99
10988;BME280;5547;42.672;23.230;2023-12-04T09:45:53;93902.13;;;-1.63;94.78
10988;BME280;5547;42.672;23.230;2023-12-04T09:48:54;93898.13;;;-1.61;92.85
10988;BME280;5547;42.672;23.230;2023-12-04T09:51:57;93901.75;;;-1.53;92.76
10988;BME280;5547;42.672;23.230;2023-12-04T09:54:57;93882.22;;;-1.38;91.31
10988;BME280;5547;42.672;23.230;2023-12-04T09:57:58;93859.63;;;-1.64;94.42
10988;BME280;5547;42.672;23.230;2023-12-04T10:01:01;93803.63;;;-1.96;96.96
10988;BME280;5547;42.672;23.230;2023-12-04T10:04:02;93864.13;;;-1.43;89.44
10988;BME280;5547;42.672;23.230;2023-12-04T10:07:05;93887.13;;;-1.37;91.37
10988;BME280;5547;42.672;23.230;2023-12-04T10:10:05;93857.97;;;-1.39;91.92
10988;BME280;5547;42.672;23.230;2023-12-04T10:13:06;93881.03;;;-1.41;91.16
10988;BME280;5547;42.672;23.230;2023-12-04T10:16:07;93893.78;;;-1.18;90.20
10988;BME280;5547;42.672;23.230;2023-12-04T10:19:21;93897.75;;;-1.12;88.70
10988;BME280;5547;42.672;23.230;2023-12-04T10:22:28;93885.34;;;-1.15;91.84
10988;BME280;5547;42.672;23.230;2023-12-04T10:25:29;93885.78;;;-1.13;91.61
10988;BME280;5547;42.672;23.230;2023-12-04T10:28:30;93875.63;;;-1.06;94.71
10988;BME280;5547;42.672;23.230;2023-12-04T10:31:34;93820.19;;;-1.33;92.61
10988;BME280;5547;42.672;23.230;2023-12-04T10:34:35;93820.78;;;-1.27;93.20
10988;BME280;5547;42.672;23.230;2023-12-04T10:37:36;93849.13;;;-0.96;92.76
10988;BME280;5547;42.672;23.230;2023-12-04T10:40:37;93855.00;;;-0.78;92.90
10988;BME280;5547;42.672;23.230;2023-12-04T10:43:46;93806.59;;;-0.96;91.24
10988;BME280;5547;42.672;23.230;2023-12-04T10:46:47;93854.78;;;-0.94;90.97
10988;BME280;5547;42.672;23.230;2023-12-04T10:49:49;93861.16;;;-0.61;92.26
10988;BME280;5547;42.672;23.230;2023-12-04T10:52:50;93855.34;;;-0.67;92.07
10988;BME280;5547;42.672;23.230;2023-12-04T10:55:56;93845.69;;;-0.88;93.15
10988;BME280;5547;42.672;23.230;2023-12-04T10:59:00;93863.91;;;-0.58;96.15
10988;BME280;5547;42.672;23.230;2023-12-04T11:02:05;93873.53;;;-0.50;90.11
10988;BME280;5547;42.672;23.230;2023-12-04T11:05:08;93862.78;;;-0.69;91.65
10988;BME280;5547;42.672;23.230;2023-12-04T11:08:17;93816.00;;;-1.04;91.94
10988;BME280;5547;42.672;23.230;2023-12-04T11:11:28;93854.59;;;-0.47;91.70
10988;BME280;5547;42.672;23.230;2023-12-04T11:14:39;93855.38;;;-0.46;89.39
10988;BME280;5547;42.672;23.230;2023-12-04T11:17:43;93855.75;;;-0.56;89.19
10988;BME280;5547;42.672;23.230;2023-12-04T11:20:51;93826.38;;;-0.74;87.57
10988;BME280;5547;42.672;23.230;2023-12-04T11:23:54;93834.41;;;-0.79;87.45
10988;BME280;5547;42.672;23.230;2023-12-04T11:26:55;93753.19;;;-1.20;91.42
10988;BME280;5547;42.672;23.230;2023-12-04T11:29:56;93840.31;;;-0.49;87.64
10988;BME280;5547;42.672;23.230;2023-12-04T11:32:56;93751.25;;;-1.11;89.01
10988;BME280;5547;42.672;23.230;2023-12-04T11:36:08;93781.03;;;-0.91;87.67
10988;BME280;5547;42.672;23.230;2023-12-04T11:39:10;93823.06;;;-0.41;88.03
10988;BME280;5547;42.672;23.230;2023-12-04T11:42:11;93823.72;;;-0.32;86.30
10988;BME280;5547;42.672;23.230;2023-12-04T11:45:19;93817.38;;;-0.44;86.06
10988;BME280;5547;42.672;23.230;2023-12-04T11:48:23;93806.69;;;-0.51;88.92
10988;BME280;5547;42.672;23.230;2023-12-04T11:57:58;93804.34;;;-0.31;86.02
10988;BME280;5547;42.672;23.230;2023-12-04T12:00:59;93718.56;;;-0.96;85.42
10988;BME280;5547;42.672;23.230;2023-12-04T12:04:00;93795.69;;;-0.44;93.39
10988;BME280;5547;42.672;23.230;2023-12-04T12:07:02;93800.72;;;-0.39;93.07
10988;BME280;5547;42.672;23.230;2023-12-04T12:10:05;93795.28;;;-0.34;92.65
10988;BME280;5547;42.672;23.230;2023-12-04T12:13:05;93791.00;;;-0.51;92.77
10988;BME280;5547;42.672;23.230;2023-12-04T12:16:07;93740.03;;;-0.57;91.55
10988;BME280;5547;42.672;23.230;2023-12-04T12:19:08;93755.72;;;-0.45;93.53
10988;BME280;5547;42.672;23.230;2023-12-04T12:22:08;93772.09;;;-0.35;89.44
10988;BME280;5547;42.672;23.230;2023-12-04T12:25:10;93791.50;;;-0.12;88.33
10988;BME280;5547;42.672;23.230;2023-12-04T12:28:10;93734.22;;;-0.29;86.34
10988;BME280;5547;42.672;23.230;2023-12-04T12:31:11;93781.50;;;-0.10;85.13
10988;BME280;5547;42.672;23.230;2023-12-04T12:34:11;93775.06;;;-0.12;88.10
10988;BME280;5547;42.672;23.230;2023-12-04T12:37:12;93731.69;;;-0.38;87.62
10988;BME280;5547;42.672;23.230;2023-12-04T12:40:12;93773.47;;;0.08;85.92
10988;BME280;5547;42.672;23.230;2023-12-04T12:43:12;93758.84;;;-0.06;84.22
10988;BME280;5547;42.672;23.230;2023-12-04T12:46:13;93754.19;;;0.12;84.62
10988;BME280;5547;42.672;23.230;2023-12-04T12:49:16;93682.25;;;-0.43;83.05
10988;BME280;5547;42.672;23.230;2023-12-04T12:52:17;93767.25;;;0.12;87.95
10988;BME280;5547;42.672;23.230;2023-12-04T12:55:23;93740.09;;;-0.20;84.35
10988;BME280;5547;42.672;23.230;2023-12-04T12:58:24;93736.63;;;-0.12;87.19
10988;BME280;5547;42.672;23.230;2023-12-04T13:01:30;93750.91;;;0.15;83.82
10988;BME280;5547;42.672;23.230;2023-12-04T13:04:38;93748.63;;;0.02;83.23
10988;BME280;5547;42.672;23.230;2023-12-04T13:07:38;93747.84;;;0.01;87.22
10988;BME280;5547;42.672;23.230;2023-12-04T13:10:40;93747.19;;;-0.08;92.61
10988;BME280;5547;42.672;23.230;2023-12-04T13:13:41;93756.91;;;0.04;88.63
10988;BME280;5547;42.672;23.230;2023-12-04T13:16:41;93694.78;;;-0.36;87.82
10988;BME280;5547;42.672;23.230;2023-12-04T13:19:42;93717.09;;;-0.39;88.56
10988;BME280;5547;42.672;23.230;2023-12-04T13:22:42;93725.25;;;-0.40;88.19
10988;BME280;5547;42.672;23.230;2023-12-04T13:25:42;93763.00;;;-0.05;90.11
10988;BME280;5547;42.672;23.230;2023-12-04T13:28:43;93734.00;;;-0.24;86.91
10988;BME280;5547;42.672;23.230;2023-12-04T13:31:44;93754.28;;;-0.09;88.60
10988;BME280;5547;42.672;23.230;2023-12-04T13:34:46;93674.03;;;-0.66;90.98
10988;BME280;5547;42.672;23.230;2023-12-04T13:37:47;93685.16;;;-0.57;92.31
10988;BME280;5547;42.672;23.230;2023-12-04T13:40:54;93747.72;;;-0.15;93.04
10988;BME280;5547;42.672;23.230;2023-12-04T13:44:19;93686.91;;;-0.49;96.83
10988;BME280;5547;42.672;23.230;2023-12-04T13:47:19;93738.03;;;-0.27;98.95
10988;BME280;5547;42.672;23.230;2023-12-04T13:50:19;93753.34;;;-0.37;98.04
10988;BME280;5547;42.672;23.230;2023-12-04T13:53:20;93745.69;;;-0.55;99.77
10988;BME280;5547;42.672;23.230;2023-12-04T13:56:29;93739.13;;;-0.73;100.00
10988;BME280;5547;42.672;23.230;2023-12-04T13:59:44;93666.41;;;-1.38;100.00
10988;BME280;5547;42.672;23.230;2023-12-04T14:02:45;93742.06;;;-0.96;100.00
10988;BME280;5547;42.672;23.230;2023-12-04T14:05:45;93677.63;;;-1.58;100.00
10988;BME280;5547;42.672;23.230;2023-12-04T14:08:46;93751.31;;;-1.19;100.00
10988;BME280;5547;42.672;23.230;2023-12-04T14:11:46;93694.28;;;-1.72;100.00
10988;BME280;5547;42.672;23.230;2023-12-04T14:14:48;93721.81;;;-1.62;100.00
10988;BME280;5547;42.672;23.230;2023-12-04T14:17:48;93742.34;;;-1.52;100.00
10988;BME280;5547;42.672;23.230;2023-12-04T14:20:49;93736.25;;;-1.64;100.00
10988;BME280;5547;42.672;23.230;2023-12-04T14:23:50;93709.88;;;-1.93;100.00
10988;BME280;5547;42.672;23.230;2023-12-04T14:26:51;93741.59;;;-1.82;100.00
10988;BME280;5547;42.672;23.230;2023-12-04T14:29:53;93730.63;;;-1.96;100.00
10988;BME280;5547;42.672;23.230;2023-12-04T14:32:53;93698.69;;;-2.23;100.00
10988;BME280;5547;42.672;23.230;2023-12-04T14:35:55;93741.13;;;-2.14;100.00
10988;BME280;5547;42.672;23.230;2023-12-04T14:38:56;93723.44;;;-2.38;100.00
10988;BME280;5547;42.672;23.230;2023-12-04T14:41:56;93711.19;;;-2.46;100.00
10988;BME280;5547;42.672;23.230;2023-12-04T14:44:57;93732.63;;;-2.40;100.00
10988;BME280;5547;42.672;23.230;2023-12-04T14:47:57;93713.34;;;-2.57;100.00
10988;BME280;5547;42.672;23.230;2023-12-04T14:50:58;93721.50;;;-2.58;100.00
10988;BME280;5547;42.672;23.230;2023-12-04T14:53:58;93725.22;;;-2.77;100.00
10988;BME280;5547;42.672;23.230;2023-12-04T14:57:21;93691.44;;;-3.11;100.00
10988;BME280;5547;42.672;23.230;2023-12-04T15:00:50;93713.31;;;-2.95;100.00
10988;BME280;5547;42.672;23.230;2023-12-04T15:03:50;93691.16;;;-3.27;100.00
10988;BME280;5547;42.672;23.230;2023-12-04T15:07:09;93714.88;;;-3.11;100.00
10988;BME280;5547;42.672;23.230;2023-12-04T15:10:16;93701.84;;;-3.20;100.00
10988;BME280;5547;42.672;23.230;2023-12-04T15:13:37;93694.81;;;-3.11;100.00
10988;BME280;5547;42.672;23.230;2023-12-04T15:16:55;93719.72;;;-3.01;100.00
10988;BME280;5547;42.672;23.230;2023-12-04T15:20:12;93684.09;;;-3.35;100.00
10988;BME280;5547;42.672;23.230;2023-12-04T15:23:12;93724.66;;;-3.26;100.00
10988;BME280;5547;42.672;23.230;2023-12-04T15:26:13;93720.84;;;-3.37;100.00
10988;BME280;5547;42.672;23.230;2023-12-04T15:29:15;93724.06;;;-3.49;100.00
10988;BME280;5547;42.672;23.230;2023-12-04T15:32:18;93707.19;;;-3.51;100.00
10988;BME280;5547;42.672;23.230;2023-12-04T15:35:18;93668.63;;;-3.84;100.00
10988;BME280;5547;42.672;23.230;2023-12-04T15:38:19;93714.84;;;-3.55;100.00
10988;BME280;5547;42.672;23.230;2023-12-04T15:41:20;93718.84;;;-3.57;100.00
10988;BME280;5547;42.672;23.230;2023-12-04T15:44:20;93717.47;;;-3.55;100.00
10988;BME280;5547;42.672;23.230;2023-12-04T15:47:21;93678.72;;;-3.91;100.00
10988;BME280;5547;42.672;23.230;2023-12-04T15:50:22;93694.03;;;-3.72;100.00
10988;BME280;5547;42.672;23.230;2023-12-04T15:53:22;93637.13;;;-4.17;100.00
10988;BME280;5547;42.672;23.230;2023-12-04T15:56:23;93706.56;;;-3.74;100.00
10988;BME280;5547;42.672;23.230;2023-12-04T15:59:23;93699.53;;;-3.83;100.00